Time;durP1;ratioP1;P1;durP2;ratioP2;P2;SDS_P1;SDS_P2;PMS_P1;PMS_P2;Temp;Humidity;BMP_temperature;BMP_pressure;BME280_temperature;BME280_humidity;BME280_pressure;Samples;Min_cycle;Max_cycle;Signal;HPM_P1;HPM_P2
2020/12/15 00:00:48;;;;;;;20.9;7.5;;;;;;;4.13;85.70215;933.8806;;;;
2020/12/15 00:03:13;;;;;;;17.6;5.6;;;;;;;4.26;85.25488;933.8166;;;;
2020/12/15 00:05:39;;;;;;;13.1;5.4;;;;;;;3.76;87.22363;933.8734;;;;
2020/12/15 00:08:04;;;;;;;9;3.3;;;;;;;3.89;87.56445;933.7628;;;;
2020/12/15 00:10:30;;;;;;;6.9;3.1;;;;;;;4.13;86.36621;933.8159;;;;
2020/12/15 00:12:55;;;;;;;4;2.2;;;;;;;4.31;85.44629;933.7793;;;;
2020/12/15 00:15:20;;;;;;;4.8;2.6;;;;;;;4.41;84.9375;933.7623;;;;
2020/12/15 00:17:45;;;;;;;8;3.4;;;;;;;4.39;84.66309;933.7489;;;;
2020/12/15 00:20:10;;;;;;;4.6;2.6;;;;;;;4.48;83.95898;933.7703;;;;
2020/12/15 00:22:36;;;;;;;6.2;3.4;;;;;;;4.5;83.37891;933.7252;;;;
2020/12/15 00:25:01;;;;;;;4.7;2.9;;;;;;;4.38;83.86035;933.7131;;;;
2020/12/15 00:27:27;;;;;;;6.9;3.1;;;;;;;3.98;85.60449;933.7109;;;;
2020/12/15 00:29:52;;;;;;;6.6;3.5;;;;;;;3.64;87.2207;933.7173;;;;
2020/12/15 00:32:17;;;;;;;11.2;3.6;;;;;;;3.67;87.38477;933.6528;;;;
2020/12/15 00:34:42;;;;;;;11;4.4;;;;;;;3.52;88.0293;933.6414;;;;
2020/12/15 00:37:09;;;;;;;8.5;3;;;;;;;3.43;88.81738;933.7;;;;
2020/12/15 00:39:34;;;;;;;5.4;3.4;;;;;;;3.16;90.53418;933.7869;;;;
2020/12/15 00:41:58;;;;;;;9.7;2.9;;;;;;;3.4;89.86719;933.7838;;;;
2020/12/15 00:44:24;;;;;;;8.6;2.7;;;;;;;3.36;89.16406;933.8702;;;;
2020/12/15 00:46:51;;;;;;;4.9;3;;;;;;;3.1;90.4082;933.7787;;;;
2020/12/15 00:49:16;;;;;;;3.1;2;;;;;;;3.13;90.83301;933.7468;;;;
2020/12/15 00:51:41;;;;;;;2.9;1.6;;;;;;;2.83;92.75488;933.6149;;;;
2020/12/15 00:54:07;;;;;;;1.7;1.5;;;;;;;2.65;94.22656;933.8557;;;;
2020/12/15 00:56:32;;;;;;;6.3;2.2;;;;;;;2.82;94.12988;933.7473;;;;
2020/12/15 00:58:57;;;;;;;4.3;2.1;;;;;;;2.99;93.08008;933.7508;;;;
2020/12/15 01:01:29;;;;;;;2.8;1.7;;;;;;;3.2;91.64355;933.7811;;;;
2020/12/15 01:03:55;;;;;;;7.9;2.2;;;;;;;3.17;91.7168;933.7905;;;;
2020/12/15 01:06:20;;;;;;;4.1;1.6;;;;;;;3.33;91.31152;933.8095;;;;
2020/12/15 01:08:48;;;;;;;6.4;1.9;;;;;;;3.64;89.83984;933.8984;;;;
2020/12/15 01:11:23;;;;;;;3.5;2;;;;;;;3.51;89.19629;933.9378;;;;
2020/12/15 01:13:48;;;;;;;3.8;2.4;;;;;;;3.55;88.79883;933.9146;;;;
2020/12/15 01:16:13;;;;;;;9.6;2.1;;;;;;;3.54;88.81738;933.8259;;;;
2020/12/15 01:18:38;;;;;;;6.6;2.7;;;;;;;3.33;89.34863;933.8875;;;;
2020/12/15 01:21:03;;;;;;;2;1.5;;;;;;;3.63;88.37598;933.946;;;;
2020/12/15 01:23:29;;;;;;;3.1;2.1;;;;;;;3.42;88.85156;933.9573;;;;
2020/12/15 01:25:54;;;;;;;4.6;2.3;;;;;;;3.36;88.68066;933.9835;;;;
2020/12/15 01:28:19;;;;;;;6.7;1.6;;;;;;;3.13;89.93164;934.0368;;;;
2020/12/15 01:30:47;;;;;;;3.4;1.8;;;;;;;2.98;90.68652;934.0123;;;;
2020/12/15 01:33:12;;;;;;;3.4;2.2;;;;;;;3.27;89.89453;934.0563;;;;
2020/12/15 01:35:44;;;;;;;3.8;2.1;;;;;;;3.34;88.62109;934.1049;;;;
2020/12/15 01:38:09;;;;;;;2.5;1.5;;;;;;;3.45;88.42969;934.0856;;;;
2020/12/15 01:40:34;;;;;;;4;2;;;;;;;3;90.30859;934.0736;;;;
2020/12/15 01:42:59;;;;;;;2.7;1.8;;;;;;;3.27;89.96191;934.0483;;;;
2020/12/15 01:45:25;;;;;;;3.8;2;;;;;;;3.39;88.66406;933.9348;;;;
2020/12/15 01:47:50;;;;;;;3.7;2.1;;;;;;;3.05;90.26465;934.0234;;;;
2020/12/15 01:50:16;;;;;;;2;1.5;;;;;;;3.02;90.33691;934.0422;;;;
2020/12/15 01:52:41;;;;;;;6.7;2.6;;;;;;;3;90.84766;933.9744;;;;
2020/12/15 01:55:06;;;;;;;2.8;1.6;;;;;;;3.23;89.70801;934.0419;;;;
2020/12/15 01:57:32;;;;;;;2.8;1.6;;;;;;;2.97;90.10156;934.1465;;;;
2020/12/15 01:59:57;;;;;;;6.3;3;;;;;;;2.94;90.82422;934.1669;;;;
2020/12/15 02:02:22;;;;;;;3.6;2.8;;;;;;;2.86;91.22363;934.1778;;;;
2020/12/15 02:04:47;;;;;;;3.4;1.7;;;;;;;2.86;91.04297;934.2202;;;;
2020/12/15 02:07:12;;;;;;;1.9;1.2;;;;;;;2.66;92.7373;934.205;;;;
2020/12/15 02:09:38;;;;;;;0.7;0.7;;;;;;;2.85;92.54199;934.2507;;;;
2020/12/15 02:12:03;;;;;;;3.2;1.2;;;;;;;3.2;91.18359;934.3033;;;;
2020/12/15 02:14:29;;;;;;;2;1.3;;;;;;;3.39;90.25879;934.3039;;;;
2020/12/15 02:16:54;;;;;;;5.4;1.6;;;;;;;3.54;89.09863;934.2463;;;;
2020/12/15 02:19:20;;;;;;;4;1.8;;;;;;;3.55;88.86426;934.3148;;;;
2020/12/15 02:21:47;;;;;;;1.5;1.1;;;;;;;3.53;88.66992;934.3741;;;;
2020/12/15 02:24:12;;;;;;;2.2;1.3;;;;;;;3.25;89.7793;934.2941;;;;
2020/12/15 02:26:37;;;;;;;5.8;2.8;;;;;;;3.21;90.33203;934.3158;;;;
2020/12/15 02:29:02;;;;;;;5.6;1.9;;;;;;;3.37;89.81641;934.3119;;;;
2020/12/15 02:31:28;;;;;;;4;1.7;;;;;;;3.35;89.64258;934.3245;;;;
2020/12/15 02:33:53;;;;;;;4;2.3;;;;;;;3.25;89.73438;934.3199;;;;
2020/12/15 02:36:19;;;;;;;3.2;2;;;;;;;3.34;89.70996;934.3008;;;;
2020/12/15 02:38:44;;;;;;;6.1;2.7;;;;;;;3.51;88.86816;934.2808;;;;
2020/12/15 02:41:10;;;;;;;8.1;3.4;;;;;;;3.59;88.66016;934.1926;;;;
2020/12/15 02:43:36;;;;;;;2.3;1.6;;;;;;;3.72;87.77637;934.2131;;;;
2020/12/15 02:46:01;;;;;;;3.5;2.2;;;;;;;3.52;88.19629;934.3284;;;;
2020/12/15 02:48:29;;;;;;;1.8;1;;;;;;;3.08;90.70996;934.3343;;;;
2020/12/15 02:50:54;;;;;;;1;0.5;;;;;;;3.08;91.29297;934.2219;;;;
2020/12/15 02:53:19;;;;;;;1.7;1.2;;;;;;;3.23;91.04102;934.2595;;;;
2020/12/15 02:55:44;;;;;;;3;1.8;;;;;;;3.22;90.96289;934.416;;;;
2020/12/15 02:58:10;;;;;;;3.9;2.3;;;;;;;3.29;90.6748;934.4913;;;;
2020/12/15 03:00:35;;;;;;;3.2;1.6;;;;;;;3.54;90.05371;934.5665;;;;
2020/12/15 03:03:02;;;;;;;3.1;1.6;;;;;;;3.77;89.08008;934.5168;;;;
2020/12/15 03:05:27;;;;;;;3.2;1.2;;;;;;;3.89;88.19434;934.5552;;;;
2020/12/15 03:07:53;;;;;;;1.2;0.8;;;;;;;3.94;87.77832;934.7031;;;;
2020/12/15 03:10:18;;;;;;;2.2;0.8;;;;;;;3.99;87.42773;934.8053;;;;
2020/12/15 03:12:43;;;;;;;1.9;1.1;;;;;;;3.84;87.65625;934.783;;;;
2020/12/15 03:15:08;;;;;;;1.6;0.9;;;;;;;3.6;88.90918;934.5981;;;;
2020/12/15 03:17:36;;;;;;;2.1;1.1;;;;;;;3.72;88.66406;934.4241;;;;
2020/12/15 03:20:01;;;;;;;4.1;1.7;;;;;;;3.39;89.8877;934.5602;;;;
2020/12/15 03:22:26;;;;;;;2.9;2;;;;;;;3.28;91.03223;934.8167;;;;
2020/12/15 03:24:51;;;;;;;2.1;1.3;;;;;;;3.17;91.9502;934.7759;;;;
2020/12/15 03:27:18;;;;;;;4.1;2.1;;;;;;;3.51;90.7666;934.6373;;;;
2020/12/15 03:29:43;;;;;;;5.3;1.4;;;;;;;3.78;89.7002;934.8109;;;;
2020/12/15 03:32:10;;;;;;;1.6;1.1;;;;;;;3.89;89.01465;934.8937;;;;
2020/12/15 03:34:35;;;;;;;1.9;1.3;;;;;;;4.02;88.50293;934.8719;;;;
2020/12/15 03:37:00;;;;;;;2.3;1.1;;;;;;;3.71;89.21289;934.9883;;;;
2020/12/15 03:39:26;;;;;;;1.3;0.9;;;;;;;3.86;88.81836;934.9056;;;;
2020/12/15 03:41:54;;;;;;;1.1;1;;;;;;;3.86;88.3125;934.7952;;;;
2020/12/15 03:44:17;;;;;;;2.3;1.2;;;;;;;3.78;89.16113;934.7874;;;;
2020/12/15 03:46:44;;;;;;;1.4;0.9;;;;;;;3.78;88.57617;934.9534;;;;
2020/12/15 03:49:10;;;;;;;0.9;0.9;;;;;;;3.96;88.27637;934.9289;;;;
2020/12/15 03:51:35;;;;;;;1.4;1;;;;;;;3.79;88.82715;934.8042;;;;
2020/12/15 03:54:00;;;;;;;1.1;0.9;;;;;;;3.92;88.46973;934.838;;;;
2020/12/15 03:56:25;;;;;;;1.8;1;;;;;;;4.05;88.33105;934.6641;;;;
2020/12/15 03:58:51;;;;;;;1;0.9;;;;;;;4.23;87.41992;934.6375;;;;
2020/12/15 04:02:30;;;;;;;1;0.8;;;;;;;3.94;88.58594;934.5212;;;;
2020/12/15 04:04:55;;;;;;;2.4;0.9;;;;;;;3.95;88.13086;934.4727;;;;
2020/12/15 04:07:22;;;;;;;0.6;0.6;;;;;;;4;88.37402;934.5031;;;;
2020/12/15 04:09:47;;;;;;;0.7;0.6;;;;;;;3.83;88.85547;934.4274;;;;
2020/12/15 04:12:13;;;;;;;0.7;0.5;;;;;;;3.89;89.05957;934.3645;;;;
2020/12/15 04:14:38;;;;;;;1.8;1.4;;;;;;;4.13;88.27832;934.199;;;;
2020/12/15 04:17:08;;;;;;;2.7;1.3;;;;;;;4.2;88.23535;934.0291;;;;
2020/12/15 04:19:32;;;;;;;0.9;0.7;;;;;;;4.39;87.26367;934.0129;;;;
2020/12/15 04:21:57;;;;;;;1;0.6;;;;;;;4.22;87.81152;934.0793;;;;
2020/12/15 04:24:22;;;;;;;0.5;0.5;;;;;;;4.06;88.99414;933.959;;;;
2020/12/15 04:26:47;;;;;;;2.1;0.4;;;;;;;4.45;87.97266;934.0603;;;;
2020/12/15 04:29:13;;;;;;;0.5;0.5;;;;;;;4.28;88.19629;934.0385;;;;
2020/12/15 04:31:39;;;;;;;1.7;0.9;;;;;;;4.08;88.66113;933.9769;;;;
2020/12/15 04:34:04;;;;;;;3.2;1.1;;;;;;;3.77;89.74512;933.9249;;;;
2020/12/15 04:36:30;;;;;;;1.5;1;;;;;;;3.58;91.1416;933.9017;;;;
2020/12/15 04:38:55;;;;;;;1.2;0.9;;;;;;;3.44;91.80859;933.8531;;;;
2020/12/15 04:41:20;;;;;;;1.7;0.7;;;;;;;3.44;91.75293;933.7611;;;;
2020/12/15 04:43:45;;;;;;;2.1;0.8;;;;;;;3.47;91.58789;933.8097;;;;
2020/12/15 04:46:12;;;;;;;0.8;0.5;;;;;;;3.5;91.65137;933.7556;;;;
2020/12/15 04:48:37;;;;;;;3.5;0.7;;;;;;;3.63;90.89258;933.688;;;;
2020/12/15 04:51:02;;;;;;;1.2;0.9;;;;;;;3.72;90.2168;933.6905;;;;
2020/12/15 04:53:28;;;;;;;0.7;0.6;;;;;;;3.98;89.00195;933.5842;;;;
2020/12/15 04:55:54;;;;;;;0.6;0.6;;;;;;;4.13;88.18848;933.5938;;;;
2020/12/15 04:58:21;;;;;;;0.8;0.6;;;;;;;4.29;87.42285;933.6291;;;;
2020/12/15 05:00:46;;;;;;;1.4;1;;;;;;;4.42;86.54883;933.6035;;;;
2020/12/15 05:03:11;;;;;;;4.5;0.7;;;;;;;4.34;86.71191;933.6775;;;;
2020/12/15 05:05:37;;;;;;;1.2;0.8;;;;;;;4.23;86.71094;933.6321;;;;
2020/12/15 05:08:02;;;;;;;1.4;0.5;;;;;;;4.37;86.54883;933.6845;;;;
2020/12/15 05:10:27;;;;;;;1.3;0.9;;;;;;;4.4;85.85645;933.6735;;;;
2020/12/15 05:12:52;;;;;;;1.7;1;;;;;;;4.46;85.79199;933.6344;;;;
2020/12/15 05:15:20;;;;;;;1.5;0.9;;;;;;;4.54;85.49316;933.4739;;;;
2020/12/15 05:17:45;;;;;;;1.7;0.9;;;;;;;4.57;85.47656;933.5283;;;;
2020/12/15 05:20:10;;;;;;;1.2;0.6;;;;;;;4.79;85.06738;933.4444;;;;
2020/12/15 05:22:36;;;;;;;0.7;0.5;;;;;;;4.66;85.54883;933.3752;;;;
2020/12/15 05:25:01;;;;;;;0.3;0.3;;;;;;;4.48;85.93066;933.3668;;;;
2020/12/15 05:27:30;;;;;;;0.7;0.5;;;;;;;4.51;86.19531;933.3359;;;;
2020/12/15 05:29:51;;;;;;;1;0.7;;;;;;;4.67;85.36133;933.2335;;;;
2020/12/15 05:32:16;;;;;;;1.1;0.7;;;;;;;4.85;84.46191;933.2158;;;;
2020/12/15 05:34:43;;;;;;;0.9;0.6;;;;;;;5.15;83.41406;933.21;;;;
2020/12/15 05:37:08;;;;;;;2.2;1.1;;;;;;;5.01;83.51172;933.2676;;;;
2020/12/15 05:39:35;;;;;;;1.8;0.9;;;;;;;5.1;83.19141;933.3328;;;;
2020/12/15 05:42:00;;;;;;;3.1;1.2;;;;;;;4.84;84.39258;933.3513;;;;
2020/12/15 05:44:27;;;;;;;3.3;2;;;;;;;4.88;84.5127;933.3089;;;;
2020/12/15 05:46:52;;;;;;;2.4;1.5;;;;;;;4.69;85.29492;933.3293;;;;
2020/12/15 05:49:17;;;;;;;2.8;1.9;;;;;;;4.68;85.35156;933.3308;;;;
2020/12/15 05:51:45;;;;;;;1.3;1;;;;;;;4.68;85.27246;933.3354;;;;
2020/12/15 05:54:10;;;;;;;1.4;0.8;;;;;;;4.98;84.12598;933.3466;;;;
2020/12/15 05:56:35;;;;;;;2.8;1.3;;;;;;;4.95;84.3916;933.3191;;;;
2020/12/15 05:59:00;;;;;;;0.8;0.8;;;;;;;5.1;83.76758;933.3147;;;;
2020/12/15 06:01:28;;;;;;;2.4;1.6;;;;;;;5.09;83.70801;933.3089;;;;
2020/12/15 06:03:53;;;;;;;6.6;2.2;;;;;;;5.28;83.06836;933.2958;;;;
2020/12/15 06:06:18;;;;;;;1.7;1.2;;;;;;;5.42;82.52148;933.3647;;;;
2020/12/15 06:08:43;;;;;;;1.9;1.2;;;;;;;5.29;82.70898;933.3411;;;;
2020/12/15 06:11:08;;;;;;;3.2;1.8;;;;;;;4.91;84.25879;933.2573;;;;
2020/12/15 06:13:34;;;;;;;4.2;1.5;;;;;;;4.91;84.61914;933.3284;;;;
2020/12/15 06:16:01;;;;;;;3;1.7;;;;;;;4.79;85.3623;933.2403;;;;
2020/12/15 06:18:24;;;;;;;2.9;1.6;;;;;;;4.88;85.06445;933.3254;;;;
2020/12/15 06:20:49;;;;;;;6.2;2.4;;;;;;;4.87;84.79199;933.3566;;;;
2020/12/15 06:23:14;;;;;;;3.7;2.1;;;;;;;5.08;84.42773;933.3972;;;;
2020/12/15 06:25:39;;;;;;;6.4;2;;;;;;;4.99;84.46484;933.39;;;;
2020/12/15 06:28:04;;;;;;;4.5;1.7;;;;;;;4.86;84.7207;933.4392;;;;
2020/12/15 06:30:33;;;;;;;9;1.7;;;;;;;4.54;86.29297;933.466;;;;
2020/12/15 06:32:58;;;;;;;4.8;2;;;;;;;4.55;86.44141;933.3575;;;;
2020/12/15 06:35:24;;;;;;;2;1.4;;;;;;;4.39;87.39844;933.4659;;;;
2020/12/15 06:37:50;;;;;;;2;1.5;;;;;;;4.38;87.50879;933.394;;;;
2020/12/15 06:40:17;;;;;;;3.3;1.5;;;;;;;4.57;86.99609;933.5746;;;;
2020/12/15 06:42:43;;;;;;;3;1.4;;;;;;;4.71;86.13379;933.5656;;;;
2020/12/15 06:45:08;;;;;;;2.2;1.4;;;;;;;4.91;85.11523;933.5145;;;;
2020/12/15 06:47:33;;;;;;;3;2;;;;;;;4.59;85.99805;933.6113;;;;
2020/12/15 06:49:58;;;;;;;4.3;1.9;;;;;;;4.55;86.35059;933.5483;;;;
2020/12/15 06:52:23;;;;;;;3;1.6;;;;;;;4.72;85.82031;933.5666;;;;
2020/12/15 06:54:51;;;;;;;3.8;2;;;;;;;4.84;85.4043;933.6328;;;;
2020/12/15 06:57:16;;;;;;;4.1;2.3;;;;;;;4.85;85.02539;933.5337;;;;
2020/12/15 06:59:41;;;;;;;4.7;3.1;;;;;;;4.91;84.61914;933.5926;;;;
2020/12/15 07:02:06;;;;;;;4.1;2.1;;;;;;;4.98;84.02441;933.6881;;;;
2020/12/15 07:04:31;;;;;;;4.2;2.8;;;;;;;4.43;86.3252;933.758;;;;
2020/12/15 07:06:57;;;;;;;5.9;3;;;;;;;4.35;86.88281;933.7291;;;;
2020/12/15 07:09:24;;;;;;;6;2.3;;;;;;;4.33;87.21484;933.7189;;;;
2020/12/15 07:11:48;;;;;;;3.4;1.5;;;;;;;4.35;87.00488;933.6958;;;;
2020/12/15 07:14:14;;;;;;;2.4;1.3;;;;;;;4.26;87.42871;933.7606;;;;
2020/12/15 07:16:40;;;;;;;2.4;1.6;;;;;;;4.27;87.28223;933.7341;;;;
2020/12/15 07:19:06;;;;;;;3.2;1.8;;;;;;;4.12;87.87012;933.7551;;;;
2020/12/15 07:21:31;;;;;;;7;3.7;;;;;;;4.19;87.48145;933.7767;;;;
2020/12/15 07:23:57;;;;;;;5.9;3.5;;;;;;;4.1;88.37402;933.8264;;;;
2020/12/15 07:26:22;;;;;;;5.5;2.4;;;;;;;4.19;89.67578;933.8019;;;;
2020/12/15 07:28:49;;;;;;;4.6;2.2;;;;;;;4.47;87.19043;933.8497;;;;
2020/12/15 07:31:14;;;;;;;3.4;2.1;;;;;;;4.53;86.42383;933.7977;;;;
2020/12/15 07:33:39;;;;;;;4.3;2;;;;;;;4.31;89.58789;933.7831;;;;
2020/12/15 07:36:05;;;;;;;2.5;1.5;;;;;;;4.05;90.65723;933.8313;;;;
2020/12/15 07:38:30;;;;;;;4.3;1.8;;;;;;;4.35;89.13379;933.8669;;;;
2020/12/15 07:40:58;;;;;;;3;2.2;;;;;;;4.49;87.19336;933.959;;;;
2020/12/15 07:43:23;;;;;;;6.5;3.4;;;;;;;4.46;87.22168;933.9575;;;;
2020/12/15 07:45:49;;;;;;;5.1;2.6;;;;;;;4.32;87.91309;933.9094;;;;
2020/12/15 07:48:14;;;;;;;5.5;2.6;;;;;;;4.55;87.04688;933.9384;;;;
2020/12/15 07:50:39;;;;;;;4.8;2.7;;;;;;;4.5;87.22949;933.9664;;;;
2020/12/15 07:53:04;;;;;;;5.7;3;;;;;;;4.82;85.86328;934.0353;;;;
2020/12/15 07:55:29;;;;;;;3.4;2.4;;;;;;;4.87;85.73926;934.0414;;;;
2020/12/15 07:57:54;;;;;;;5;3.2;;;;;;;4.85;85.71289;934.1031;;;;
2020/12/15 08:00:20;;;;;;;5.4;3.2;;;;;;;5;84.85254;934.1178;;;;
2020/12/15 08:02:45;;;;;;;7.2;3.2;;;;;;;5.18;84.35742;934.2586;;;;
2020/12/15 08:05:10;;;;;;;6.2;3.5;;;;;;;5.1;84.90625;934.1196;;;;
2020/12/15 08:07:35;;;;;;;5.2;3.5;;;;;;;5.38;83.6875;934.1877;;;;
2020/12/15 08:10:02;;;;;;;6.3;3.4;;;;;;;5.44;82.84082;934.1846;;;;
2020/12/15 08:12:28;;;;;;;3.4;2.8;;;;;;;5.49;82.67969;934.2299;;;;
2020/12/15 08:14:53;;;;;;;4.3;2.7;;;;;;;5.68;82.14063;934.2935;;;;
2020/12/15 08:17:19;;;;;;;6.8;3.1;;;;;;;5.82;81.51367;934.2665;;;;
2020/12/15 08:19:44;;;;;;;4.9;3.3;;;;;;;5.73;81.24805;934.3553;;;;
2020/12/15 08:22:09;;;;;;;7.8;3.8;;;;;;;5.66;81.42773;934.3768;;;;
2020/12/15 08:24:38;;;;;;;11.6;6;;;;;;;5.47;82.37207;934.4332;;;;
2020/12/15 08:27:01;;;;;;;8.8;4.4;;;;;;;5.52;82.22461;934.4595;;;;
2020/12/15 08:29:28;;;;;;;7.8;4;;;;;;;5.86;81.27344;934.4358;;;;
2020/12/15 08:31:54;;;;;;;5.5;2.9;;;;;;;6.05;80.30273;934.4236;;;;
2020/12/15 08:34:19;;;;;;;10.4;3.9;;;;;;;5.93;79.96387;934.3798;;;;
2020/12/15 08:36:43;;;;;;;8.6;3.8;;;;;;;5.94;79.89844;934.4321;;;;
2020/12/15 08:39:09;;;;;;;4.9;3.5;;;;;;;5.65;81.14355;934.4975;;;;
2020/12/15 08:41:34;;;;;;;6.2;3.3;;;;;;;5.59;81.90918;934.5059;;;;
2020/12/15 08:43:59;;;;;;;5.2;3.3;;;;;;;5.61;81.7002;934.4816;;;;
2020/12/15 08:46:25;;;;;;;5.7;2.8;;;;;;;5.57;82.27832;934.4992;;;;
2020/12/15 08:48:49;;;;;;;4.8;2.7;;;;;;;5.67;82.11621;934.4061;;;;
2020/12/15 08:51:15;;;;;;;6;2.5;;;;;;;5.77;81.62793;934.5078;;;;
2020/12/15 08:53:41;;;;;;;4.7;2.5;;;;;;;5.99;81.4668;934.4869;;;;
2020/12/15 08:56:06;;;;;;;4;2.5;;;;;;;6.21;80.08301;934.5329;;;;
2020/12/15 08:58:32;;;;;;;5.9;3;;;;;;;5.94;80.71289;934.5017;;;;
2020/12/15 09:00:57;;;;;;;6;3.2;;;;;;;5.68;81.62109;934.5667;;;;
2020/12/15 09:03:25;;;;;;;4.2;3;;;;;;;5.71;82.06738;934.5602;;;;
2020/12/15 09:05:50;;;;;;;10.4;5.3;;;;;;;5.83;81.44727;934.5726;;;;
2020/12/15 09:08:16;;;;;;;11.1;5.8;;;;;;;5.9;81.29199;934.5656;;;;
2020/12/15 09:10:47;;;;;;;14.3;5.2;;;;;;;6.16;80.5957;934.5111;;;;
2020/12/15 09:13:12;;;;;;;6.3;3.7;;;;;;;6.29;79.49902;934.5684;;;;
2020/12/15 09:15:37;;;;;;;6.4;2.7;;;;;;;6.24;79.58203;934.6016;;;;
2020/12/15 09:18:03;;;;;;;7;3.1;;;;;;;6.26;80.01367;934.6422;;;;
2020/12/15 09:20:29;;;;;;;10.1;4.1;;;;;;;6.46;78.8418;934.655;;;;
2020/12/15 09:22:54;;;;;;;13.6;5.8;;;;;;;6.24;79.44531;934.6316;;;;
2020/12/15 09:25:20;;;;;;;11;5.5;;;;;;;6.41;79.43164;934.6186;;;;
2020/12/15 09:27:46;;;;;;;7;4.4;;;;;;;6.33;79.5293;934.7037;;;;
2020/12/15 09:30:13;;;;;;;5.8;3;;;;;;;6.64;78.71582;934.6878;;;;
2020/12/15 09:32:37;;;;;;;2.8;1.7;;;;;;;6.88;78.07129;934.6418;;;;
2020/12/15 09:35:02;;;;;;;3.3;1.9;;;;;;;7.15;77.50684;934.5618;;;;
2020/12/15 09:37:28;;;;;;;4.9;2.3;;;;;;;7.23;76.55762;934.6797;;;;
2020/12/15 09:39:57;;;;;;;5;2.4;;;;;;;7.44;75.96094;934.6042;;;;
2020/12/15 09:42:24;;;;;;;3.8;2.1;;;;;;;7.4;76.35156;934.5754;;;;
2020/12/15 09:44:46;;;;;;;2.3;2;;;;;;;7.18;77.25293;934.6415;;;;
2020/12/15 09:47:11;;;;;;;2.5;1.6;;;;;;;7.15;77.60938;934.6592;;;;
2020/12/15 09:49:37;;;;;;;5.1;2.4;;;;;;;7.19;77.52637;934.6987;;;;
2020/12/15 09:52:03;;;;;;;5.7;2.7;;;;;;;7.17;77.2627;934.6334;;;;
2020/12/15 09:54:28;;;;;;;3.8;2.6;;;;;;;7.42;75.7666;934.7108;;;;
2020/12/15 09:56:53;;;;;;;11.9;4.8;;;;;;;7.17;76.46973;934.7039;;;;
2020/12/15 09:59:18;;;;;;;11.6;3.7;;;;;;;6.81;78.27344;934.7673;;;;
2020/12/15 10:01:46;;;;;;;8.8;4.3;;;;;;;7.04;77.58984;934.7065;;;;
2020/12/15 10:04:11;;;;;;;6.1;3.4;;;;;;;7.06;77.50391;934.7029;;;;
2020/12/15 10:06:36;;;;;;;5.3;3.1;;;;;;;7.28;76.6709;934.6926;;;;
2020/12/15 10:09:02;;;;;;;6.7;3.2;;;;;;;7.61;75.90234;934.7805;;;;
2020/12/15 10:11:26;;;;;;;7.7;3.9;;;;;;;7.74;75.67383;934.8212;;;;
2020/12/15 10:13:52;;;;;;;7;3.5;;;;;;;7.9;75.35059;934.8141;;;;
2020/12/15 10:16:17;;;;;;;8.1;4.5;;;;;;;8.11;73.66113;934.7522;;;;
2020/12/15 10:18:43;;;;;;;7;4;;;;;;;8.09;72.87598;934.7156;;;;
2020/12/15 10:21:08;;;;;;;7.6;3.8;;;;;;;7.98;73.0166;934.7328;;;;
2020/12/15 10:23:37;;;;;;;8.7;3.5;;;;;;;8.21;72.72559;934.7356;;;;
2020/12/15 10:26:00;;;;;;;5.7;3.1;;;;;;;8.31;72.7666;934.6504;;;;
2020/12/15 10:28:27;;;;;;;8.7;3.9;;;;;;;8.13;71.92871;934.6438;;;;
2020/12/15 10:30:52;;;;;;;11.3;3.2;;;;;;;8.24;72.38965;934.6258;;;;
2020/12/15 10:33:18;;;;;;;5.1;3.1;;;;;;;7.85;73.69727;934.7239;;;;
2020/12/15 10:35:43;;;;;;;3.5;2.6;;;;;;;7.86;73.4834;934.6941;;;;
2020/12/15 10:38:14;;;;;;;3.7;2.1;;;;;;;8.15;72.60156;934.6806;;;;
2020/12/15 10:40:42;;;;;;;4.9;2.2;;;;;;;8.25;71.43652;934.6512;;;;
2020/12/15 10:43:08;;;;;;;3.6;2.6;;;;;;;8.46;71.48242;934.7241;;;;
2020/12/15 10:45:34;;;;;;;2.8;2;;;;;;;8.29;71.77344;934.7294;;;;
2020/12/15 10:48:00;;;;;;;4.4;2;;;;;;;8.74;72.01953;934.6608;;;;
2020/12/15 10:50:25;;;;;;;3.2;1.7;;;;;;;8.76;71.30664;934.6062;;;;
2020/12/15 10:52:50;;;;;;;3.6;2;;;;;;;9.17;70.58789;934.5566;;;;
2020/12/15 10:55:17;;;;;;;2.8;1.3;;;;;;;9.39;69.06348;934.5133;;;;
2020/12/15 10:57:42;;;;;;;3.5;1.4;;;;;;;9.63;68.22363;934.5251;;;;
2020/12/15 11:00:11;;;;;;;3.3;1.5;;;;;;;9.69;67.96191;934.5502;;;;
2020/12/15 11:02:37;;;;;;;1.6;1.2;;;;;;;9.62;66.68457;934.506;;;;
2020/12/15 11:05:01;;;;;;;1.3;1;;;;;;;9.93;67.13281;934.4406;;;;
2020/12/15 11:07:26;;;;;;;2;1.4;;;;;;;10.07;66.13965;934.3533;;;;
2020/12/15 11:09:52;;;;;;;3.1;1.9;;;;;;;9.41;68.10059;934.5042;;;;
2020/12/15 11:12:17;;;;;;;2.5;1.7;;;;;;;9.78;68.02148;934.488;;;;
2020/12/15 11:14:44;;;;;;;1.9;1.3;;;;;;;10.05;67.50586;934.4305;;;;
2020/12/15 11:17:09;;;;;;;3.3;2.2;;;;;;;9.87;67.16992;934.4967;;;;
2020/12/15 11:19:35;;;;;;;5;2.6;;;;;;;9.9;67.70996;934.4961;;;;
2020/12/15 11:22:00;;;;;;;5.4;2.3;;;;;;;9.93;66.11816;934.4979;;;;
2020/12/15 11:24:26;;;;;;;3.9;2.1;;;;;;;9.47;66.93555;934.5206;;;;
2020/12/15 11:26:51;;;;;;;3.3;2.2;;;;;;;9.8;67.08984;934.4889;;;;
2020/12/15 11:29:17;;;;;;;3.8;2.5;;;;;;;9.98;66.42285;934.5093;;;;
2020/12/15 11:31:42;;;;;;;3.6;1.7;;;;;;;9.89;65.58789;934.4771;;;;
2020/12/15 11:34:07;;;;;;;3.2;2.3;;;;;;;9.81;64.97168;934.5242;;;;
2020/12/15 11:36:32;;;;;;;3.6;1.8;;;;;;;10.03;65.58594;934.5687;;;;
2020/12/15 11:38:57;;;;;;;2.5;1.9;;;;;;;9.68;65.39648;934.5438;;;;
2020/12/15 11:41:26;;;;;;;4.1;2.3;;;;;;;9.71;65.96875;934.4764;;;;
2020/12/15 11:43:50;;;;;;;8.5;2.7;;;;;;;9.81;65.42676;934.3986;;;;
2020/12/15 11:46:15;;;;;;;4.5;2.8;;;;;;;9.4;66.40234;934.488;;;;
2020/12/15 11:48:40;;;;;;;4.9;3.4;;;;;;;9.38;67.34277;934.5092;;;;
2020/12/15 11:51:06;;;;;;;7.3;3.6;;;;;;;9.55;68.18945;934.4623;;;;
2020/12/15 11:53:31;;;;;;;4.7;2.6;;;;;;;9.71;68.56738;934.454;;;;
2020/12/15 11:55:58;;;;;;;5.4;3.4;;;;;;;9.66;67.87695;934.5723;;;;
2020/12/15 11:58:23;;;;;;;9.5;4;;;;;;;9.59;67.42188;934.5119;;;;
2020/12/15 12:00:51;;;;;;;6.5;3.5;;;;;;;9.74;67.18262;934.5569;;;;
2020/12/15 12:03:17;;;;;;;3.9;2.9;;;;;;;9.9;67.84473;934.4611;;;;
2020/12/15 12:05:45;;;;;;;7.8;3.8;;;;;;;9.79;68.2168;934.4372;;;;
2020/12/15 12:08:10;;;;;;;5.6;3.5;;;;;;;9.59;68.58398;934.4292;;;;
2020/12/15 12:10:38;;;;;;;5.2;2.4;;;;;;;9.69;68.09863;934.4882;;;;
2020/12/15 12:13:03;;;;;;;3.1;2.2;;;;;;;9.49;68.81738;934.5779;;;;
2020/12/15 12:15:29;;;;;;;3.9;2.5;;;;;;;9.43;68.71777;934.6473;;;;
2020/12/15 12:17:54;;;;;;;3.9;2.4;;;;;;;9.57;68.06738;934.6175;;;;
2020/12/15 12:20:20;;;;;;;3;1.8;;;;;;;9.41;67.40527;934.6036;;;;
2020/12/15 12:22:45;;;;;;;3.4;1.9;;;;;;;9.44;67.31836;934.6635;;;;
2020/12/15 12:25:12;;;;;;;5;2.9;;;;;;;9.37;68.40039;934.6792;;;;
2020/12/15 12:27:37;;;;;;;3;1.8;;;;;;;9.57;68.46582;934.6786;;;;
2020/12/15 12:30:02;;;;;;;5.9;3;;;;;;;9.69;68.73535;934.7831;;;;
2020/12/15 12:32:28;;;;;;;2.6;1.8;;;;;;;9.75;67.77637;934.8256;;;;
2020/12/15 12:34:53;;;;;;;4.6;1.9;;;;;;;9.85;68.12305;934.7797;;;;
2020/12/15 12:37:18;;;;;;;2.8;1.6;;;;;;;9.94;67.26074;934.875;;;;
2020/12/15 12:39:43;;;;;;;2.5;1.8;;;;;;;9.54;68.65527;934.9344;;;;
2020/12/15 12:42:09;;;;;;;12;5.9;;;;;;;9.56;68.91992;934.9353;;;;
2020/12/15 12:44:34;;;;;;;15.6;9.3;;;;;;;9.78;69.06934;934.9062;;;;
2020/12/15 12:47:00;;;;;;;16.6;7.7;;;;;;;9.88;69.1875;934.853;;;;
2020/12/15 12:49:25;;;;;;;10.4;6.6;;;;;;;9.95;68.10449;934.9458;;;;
2020/12/15 12:51:53;;;;;;;6.9;4.3;;;;;;;10;68.08984;934.9858;;;;
2020/12/15 12:54:17;;;;;;;7.5;4;;;;;;;10.03;67.91211;934.9704;;;;
2020/12/15 12:56:43;;;;;;;5.7;3.1;;;;;;;10.05;67.83496;934.9681;;;;
2020/12/15 12:59:08;;;;;;;5.8;3.4;;;;;;;10.08;68.4209;934.9842;;;;
2020/12/15 13:01:34;;;;;;;5.8;2.9;;;;;;;10.1;67.47852;935.0002;;;;
2020/12/15 13:03:59;;;;;;;4.9;2.9;;;;;;;10.1;67.79785;935.0527;;;;
2020/12/15 13:06:26;;;;;;;6.6;2.7;;;;;;;10.09;68.52539;934.9858;;;;
2020/12/15 13:08:51;;;;;;;4.9;3.1;;;;;;;10.06;68.03125;934.9928;;;;
2020/12/15 13:11:18;;;;;;;4.8;2.7;;;;;;;10.03;68.91699;934.9888;;;;
2020/12/15 13:13:43;;;;;;;7.4;3;;;;;;;10.01;68.80859;935.0383;;;;
2020/12/15 13:16:08;;;;;;;4.1;2.7;;;;;;;9.92;68.83008;935.0069;;;;
2020/12/15 13:18:33;;;;;;;4.9;2.9;;;;;;;9.64;69.95898;935.0094;;;;
2020/12/15 13:20:58;;;;;;;5.8;3.6;;;;;;;9.5;71.08691;935.0095;;;;
2020/12/15 13:23:23;;;;;;;7.1;4.6;;;;;;;9.39;71.67188;935.1355;;;;
2020/12/15 13:25:49;;;;;;;9.2;4.9;;;;;;;9.62;71.24316;935.1117;;;;
2020/12/15 13:28:18;;;;;;;12.2;5.5;;;;;;;9.61;71.53809;935.1411;;;;
2020/12/15 13:30:41;;;;;;;13.3;6.6;;;;;;;9.4;72.6543;935.1395;;;;
2020/12/15 13:33:07;;;;;;;6.1;4;;;;;;;9.73;71.95605;935.0744;;;;
2020/12/15 13:35:33;;;;;;;7.9;4.9;;;;;;;9.82;71.48145;935.096;;;;
2020/12/15 13:38:00;;;;;;;21.4;8.6;;;;;;;10.02;70.66992;935.0443;;;;
2020/12/15 13:40:25;;;;;;;13.4;7.7;;;;;;;10.25;70.20508;935.0103;;;;
2020/12/15 13:42:50;;;;;;;7.5;3.1;;;;;;;10.08;69.14063;935.0295;;;;
2020/12/15 13:45:16;;;;;;;12.5;7;;;;;;;10.53;68.5625;934.992;;;;
2020/12/15 13:47:41;;;;;;;4.5;3;;;;;;;10.77;68.46387;934.959;;;;
2020/12/15 13:50:07;;;;;;;7.1;4.3;;;;;;;10.45;69.67969;934.9687;;;;
2020/12/15 13:52:32;;;;;;;32;13.9;;;;;;;10.02;70.4209;934.9402;;;;
2020/12/15 13:54:57;;;;;;;6.2;3.7;;;;;;;9.84;71.48438;935.0039;;;;
2020/12/15 13:57:22;;;;;;;20;8.9;;;;;;;9.85;71.29199;934.9642;;;;
2020/12/15 13:59:48;;;;;;;14.2;3.7;;;;;;;9.77;71.50684;935.035;;;;
2020/12/15 14:02:13;;;;;;;5.5;2.3;;;;;;;9.47;71.77441;935.1396;;;;
2020/12/15 14:04:40;;;;;;;6.3;2.3;;;;;;;9.47;72.1748;935.1373;;;;
2020/12/15 14:07:06;;;;;;;23.9;10.9;;;;;;;9.18;73.00293;935.1945;;;;
2020/12/15 14:09:31;;;;;;;7.3;2.7;;;;;;;9.05;72.17383;935.1622;;;;
2020/12/15 14:11:56;;;;;;;8.8;4.4;;;;;;;9.03;72.21582;935.2232;;;;
2020/12/15 14:14:22;;;;;;;12.8;7;;;;;;;8.97;71.39746;935.1984;;;;
2020/12/15 14:16:47;;;;;;;12.6;5.9;;;;;;;8.8;71.92676;935.2885;;;;
2020/12/15 14:19:12;;;;;;;3.8;2.2;;;;;;;8.66;72.92676;935.3433;;;;
2020/12/15 14:21:37;;;;;;;5.4;2;;;;;;;8.84;71.63867;935.3345;;;;
2020/12/15 14:24:02;;;;;;;3.8;1.7;;;;;;;8.78;71.43457;935.2851;;;;
2020/12/15 14:26:27;;;;;;;3.3;1.9;;;;;;;8.88;70.63184;935.3349;;;;
2020/12/15 14:28:52;;;;;;;2.5;1.7;;;;;;;9.13;70.85547;935.3497;;;;